Myrtle, Missouri
Current Conditions -  °F | °C
As of 8:55 AM on Sunday 23 Nov 2014 (Local Time) from KARG Reporting Station
Overcast Overcast  
Wind Chill: 57°   Ceiling: 900
Heat Index: 57°   Visibility: 10mi
Dew Point: 54°   Wind: 13mph
Humidity: 88%   Direction: 140°SE
Pressure: 29.64"   Gusts: NA
Location:  36.51°N, 91.27°W
Report Text: KARG 231455Z AUTO 14011KT 10SM OVC009 14/12 A2964 RMK AO1 60002 57027
Loading
Personal Weather Stations






























Interactive Weather Map New forecast layout! Learn more

10-Day Weather Forecast

Advertisements
Track Severe Weather on mobile